Terminal Aerodrome Forecast
Issued by NWS

Home | Current Version | Previous Version | Text Only | Print | Product List | Glossary On
Versions: 1 2 3 4 5 6 7 8 9 10 11 12 13
000
FTUS46 KLOX 292300
TAFPMD
TAF
KPMD 292336Z 3000/3024 28017G23KT P6SM SCT150 BKN250
     FM300500 23012KT P6SM SCT150 BKN250
     FM301400 27008KT P6SM SCT150 BKN250
     FM302000 28012KT P6SM SCT250
     FM302300 26015G22KT P6SM SCT250=

USA.gov is the U.S. government's official web portal to all federal, state and local government web resources and services.